createdAt,value
2019-06-15T00:00:44.726Z,19.30
2019-06-15T00:03:13.432Z,19.41
2019-06-15T00:05:42.048Z,19.47
2019-06-15T00:08:10.637Z,19.52
2019-06-15T00:10:39.318Z,19.50
2019-06-15T00:13:07.956Z,19.50
2019-06-15T00:15:36.644Z,19.32
2019-06-15T00:18:05.451Z,19.45
2019-06-15T00:20:34.110Z,19.28
2019-06-15T00:23:02.798Z,19.11
2019-06-15T00:25:31.467Z,19.02
2019-06-15T00:28:00.210Z,18.86
2019-06-15T00:30:28.857Z,18.80
2019-06-15T00:32:57.544Z,18.82
2019-06-15T00:35:26.208Z,18.93
2019-06-15T00:37:54.895Z,18.82
2019-06-15T00:40:23.599Z,18.69
2019-06-15T00:42:52.299Z,18.82
2019-06-15T00:45:20.935Z,18.72
2019-06-15T00:47:49.629Z,18.67
2019-06-15T00:50:18.285Z,18.60
2019-06-15T00:52:46.913Z,18.65
2019-06-15T00:55:15.820Z,18.57
2019-06-15T00:57:44.447Z,18.60
2019-06-15T01:00:13.323Z,18.62
2019-06-15T01:02:41.970Z,18.65
2019-06-15T01:05:10.668Z,18.67
2019-06-15T01:07:39.221Z,18.63
2019-06-15T01:10:28.615Z,18.63
2019-06-15T01:12:57.270Z,18.68
2019-06-15T01:15:25.960Z,18.58
2019-06-15T01:17:54.527Z,18.54
2019-06-15T01:21:03.010Z,18.48
2019-06-15T01:23:31.708Z,18.47
2019-06-15T01:26:00.525Z,18.44
2019-06-15T01:28:29.223Z,18.38
2019-06-15T01:31:18.419Z,18.36
2019-06-15T01:33:47.121Z,18.27
2019-06-15T01:36:15.792Z,18.28
2019-06-15T01:38:44.476Z,18.24
2019-06-15T01:41:13.109Z,18.29
2019-06-15T01:43:41.809Z,18.15
2019-06-15T01:46:10.472Z,18.19
2019-06-15T01:48:39.169Z,18.08
2019-06-15T01:51:07.874Z,18.07
2019-06-15T01:53:36.424Z,18.13
2019-06-15T01:56:05.102Z,18.01
2019-06-15T01:58:33.770Z,18.00
2019-06-15T02:01:02.499Z,18.05
2019-06-15T02:03:31.107Z,18.20
2019-06-15T02:05:59.997Z,18.07
2019-06-15T02:08:28.643Z,18.19
2019-06-15T02:10:57.338Z,18.22
2019-06-15T02:13:25.988Z,18.22
2019-06-15T02:15:54.668Z,18.34
2019-06-15T02:18:23.337Z,18.39
2019-06-15T02:20:52.029Z,18.36
2019-06-15T02:23:20.674Z,18.28
2019-06-15T02:25:49.381Z,18.23
2019-06-15T02:28:18.091Z,18.13
2019-06-15T02:30:46.787Z,18.03
2019-06-15T02:33:15.467Z,18.02
2019-06-15T02:36:04.801Z,17.96
2019-06-15T02:38:33.519Z,18.00
2019-06-15T02:44:12.112Z,17.98
2019-06-15T02:46:40.777Z,17.92
2019-06-15T02:49:09.412Z,17.88
2019-06-15T02:55:08.799Z,17.72
2019-06-15T02:57:37.458Z,17.69
2019-06-15T03:00:44.668Z,17.69
2019-06-15T03:03:33.967Z,17.65
2019-06-15T03:06:02.754Z,17.64
2019-06-15T03:08:31.474Z,17.64
2019-06-15T03:11:00.181Z,17.68
2019-06-15T03:13:28.862Z,17.70
2019-06-15T03:15:57.582Z,17.84
2019-06-15T03:18:26.275Z,17.80
2019-06-15T03:21:14.215Z,17.80
2019-06-15T03:23:42.902Z,17.71
2019-06-15T03:26:11.565Z,17.68
2019-06-15T03:28:40.185Z,17.77
2019-06-15T03:31:08.861Z,17.73
2019-06-15T03:33:58.370Z,17.63
2019-06-15T03:37:06.810Z,17.57
2019-06-15T03:39:35.326Z,17.49
2019-06-15T03:42:03.990Z,17.39
2019-06-15T03:44:32.589Z,17.34
2019-06-15T03:47:01.053Z,17.40
2019-06-15T03:49:29.630Z,17.59
2019-06-15T03:51:58.164Z,18.08
2019-06-15T03:54:26.736Z,18.41
2019-06-15T03:56:55.198Z,18.42
2019-06-15T03:59:23.842Z,18.53
2019-06-15T04:01:52.648Z,18.51
2019-06-15T04:04:21.310Z,18.46
2019-06-15T04:06:49.838Z,18.26
2019-06-15T04:09:40.055Z,18.12
2019-06-15T04:12:08.769Z,18.08
2019-06-15T04:14:37.640Z,17.96
2019-06-15T04:17:06.212Z,17.86
2019-06-15T04:19:34.907Z,17.84
2019-06-15T04:22:03.589Z,17.82
2019-06-15T04:24:32.289Z,17.84
2019-06-15T04:27:00.867Z,17.84
2019-06-15T04:29:29.513Z,17.80
2019-06-15T04:31:58.161Z,17.86
2019-06-15T04:34:26.847Z,17.77
2019-06-15T04:36:55.534Z,17.83
2019-06-15T04:39:24.114Z,17.78
2019-06-15T04:41:52.778Z,17.67
2019-06-15T04:44:22.405Z,17.55
2019-06-15T04:46:50.951Z,17.62
2019-06-15T04:49:19.653Z,17.62
2019-06-15T04:51:48.321Z,17.61
2019-06-15T04:54:16.927Z,17.68
2019-06-15T04:56:50.878Z,17.69
2019-06-15T05:01:55.245Z,17.79
2019-06-15T05:04:23.899Z,17.73
2019-06-15T05:06:52.532Z,17.67
2019-06-15T05:09:21.242Z,17.83
2019-06-15T05:11:49.891Z,17.84
2019-06-15T05:14:18.578Z,17.84
2019-06-15T05:16:47.229Z,17.87
2019-06-15T05:19:16.104Z,17.92
2019-06-15T05:21:44.784Z,17.94
2019-06-15T05:24:13.478Z,18.01
2019-06-15T05:26:42.152Z,18.21
2019-06-15T05:29:10.804Z,18.31
2019-06-15T05:31:39.504Z,18.43
2019-06-15T05:34:08.220Z,18.54
2019-06-15T05:36:36.849Z,18.78
2019-06-15T05:39:26.173Z,19.02
2019-06-15T05:41:54.823Z,19.07
2019-06-15T05:44:23.507Z,19.20
2019-06-15T05:46:52.207Z,19.27
2019-06-15T05:49:20.911Z,19.34
2019-06-15T05:51:49.505Z,19.34
2019-06-15T05:54:18.183Z,19.21
2019-06-15T05:56:46.798Z,19.17
2019-06-15T05:59:15.437Z,19.14
2019-06-15T06:01:44.123Z,19.10
2019-06-15T06:04:12.763Z,18.93
2019-06-15T06:06:41.455Z,18.82
2019-06-15T06:09:10.094Z,18.67
2019-06-15T06:11:38.863Z,18.65
2019-06-15T06:14:07.503Z,18.54
2019-06-15T06:16:36.158Z,18.43
2019-06-15T06:19:04.855Z,18.43
2019-06-15T06:21:33.518Z,18.47
2019-06-15T06:24:02.192Z,18.43
2019-06-15T06:26:30.840Z,18.46
2019-06-15T06:28:59.530Z,18.43
2019-06-15T06:31:28.210Z,18.58
2019-06-15T06:33:56.795Z,18.65
2019-06-15T06:36:25.495Z,18.72
2019-06-15T06:38:54.152Z,18.92
2019-06-15T06:41:22.730Z,18.86
2019-06-15T06:43:51.414Z,18.93
2019-06-15T06:46:20.054Z,19.10
2019-06-15T06:48:48.738Z,19.12
2019-06-15T06:51:17.428Z,19.29
2019-06-15T06:53:46.045Z,19.63
2019-06-15T06:56:14.744Z,20.40
2019-06-15T06:58:43.404Z,20.51
2019-06-15T07:01:12.057Z,20.99
2019-06-15T07:03:40.815Z,20.81
2019-06-15T07:06:09.475Z,21.29
2019-06-15T07:08:38.224Z,21.56
2019-06-15T07:11:06.798Z,22.04
2019-06-15T07:13:35.406Z,22.35
2019-06-15T07:16:04.063Z,22.98
2019-06-15T07:18:32.745Z,23.06
2019-06-15T07:21:01.401Z,23.02
2019-06-15T07:23:31.992Z,23.42
2019-06-15T07:26:00.592Z,23.38
2019-06-15T07:28:29.324Z,23.69
2019-06-15T07:30:57.975Z,23.67
2019-06-15T07:33:26.745Z,23.33
2019-06-15T07:35:55.422Z,22.97
2019-06-15T07:38:24.077Z,23.34
2019-06-15T07:40:52.695Z,23.46
2019-06-15T07:43:21.346Z,24.65
2019-06-15T07:45:49.967Z,24.23
2019-06-15T07:48:18.630Z,23.93
2019-06-15T07:50:47.326Z,23.78
2019-06-15T07:53:16.756Z,23.44
2019-06-15T07:56:05.671Z,23.18
2019-06-15T07:58:34.535Z,22.98
2019-06-15T08:01:03.749Z,23.26
2019-06-15T08:03:32.677Z,23.35
2019-06-15T08:06:01.410Z,22.81
2019-06-15T08:08:30.084Z,23.11
2019-06-15T08:11:18.052Z,23.15
2019-06-15T08:13:46.532Z,23.03
2019-06-15T08:16:15.143Z,23.05
2019-06-15T08:18:43.884Z,22.63
2019-06-15T08:21:12.610Z,22.39
2019-06-15T08:23:41.444Z,22.82
2019-06-15T08:26:10.087Z,23.05
2019-06-15T08:28:40.559Z,23.08
2019-06-15T08:31:09.467Z,22.81
2019-06-15T08:33:58.910Z,22.88
2019-06-15T08:36:27.554Z,23.11
2019-06-15T08:38:56.242Z,23.33
2019-06-15T08:41:24.914Z,23.36
2019-06-15T08:43:53.591Z,23.38
2019-06-15T08:46:22.290Z,22.90
2019-06-15T08:48:50.922Z,22.92
2019-06-15T08:51:19.521Z,23.03
2019-06-15T08:53:48.169Z,23.71
2019-06-15T08:56:16.869Z,23.57
2019-06-15T08:58:55.157Z,23.58
2019-06-15T09:01:35.098Z,23.41
2019-06-15T09:04:03.797Z,23.11
2019-06-15T09:06:32.438Z,22.90
2019-06-15T09:09:01.094Z,23.03
2019-06-15T09:11:29.790Z,23.31
2019-06-15T09:13:58.509Z,23.53
2019-06-15T09:16:27.088Z,23.44
2019-06-15T09:18:57.593Z,23.14
2019-06-15T09:21:26.253Z,22.86
2019-06-15T09:23:54.922Z,22.53
2019-06-15T09:27:03.391Z,22.83
2019-06-15T09:29:32.091Z,22.86
2019-06-15T09:32:00.795Z,23.13
2019-06-15T09:34:29.433Z,23.75
2019-06-15T09:36:58.112Z,24.06
2019-06-15T09:39:26.769Z,24.19
2019-06-15T09:41:55.441Z,24.35
2019-06-15T09:45:03.853Z,24.41
2019-06-15T09:47:32.532Z,24.79
2019-06-15T09:50:01.102Z,23.61
2019-06-15T09:52:29.813Z,23.01
2019-06-15T09:54:58.472Z,23.29
2019-06-15T09:57:27.153Z,24.21
2019-06-15T09:59:55.773Z,24.66
2019-06-15T10:02:24.454Z,24.70
2019-06-15T10:04:53.135Z,24.57
2019-06-15T10:07:21.850Z,24.64
2019-06-15T10:09:50.526Z,25.29
2019-06-15T10:12:19.246Z,24.32
2019-06-15T10:14:47.842Z,24.00
2019-06-15T10:17:16.496Z,24.11
2019-06-15T10:19:45.161Z,24.23
2019-06-15T10:22:13.837Z,24.45
2019-06-15T10:24:42.429Z,24.60
2019-06-15T10:27:11.093Z,24.29
2019-06-15T10:29:42.224Z,24.15
2019-06-15T10:32:10.228Z,23.73
2019-06-15T10:34:38.846Z,23.49
2019-06-15T10:37:07.486Z,23.39
2019-06-15T10:39:36.177Z,23.54
2019-06-15T10:42:04.824Z,23.78
2019-06-15T10:44:33.569Z,24.11
2019-06-15T10:47:02.230Z,24.09
2019-06-15T10:49:30.915Z,24.62
2019-06-15T10:51:59.534Z,24.44
2019-06-15T10:54:28.180Z,24.48
2019-06-15T10:56:56.874Z,24.29
2019-06-15T10:59:25.586Z,24.26
2019-06-15T11:01:54.272Z,24.24
2019-06-15T11:04:22.884Z,24.11
2019-06-15T11:06:51.588Z,24.22
2019-06-15T11:09:20.271Z,24.45
2019-06-15T11:11:48.959Z,24.36
2019-06-15T11:14:17.663Z,24.02
2019-06-15T11:17:26.150Z,24.50
2019-06-15T11:19:54.818Z,24.74
2019-06-15T11:22:23.452Z,24.99
2019-06-15T11:24:52.165Z,24.31
2019-06-15T11:27:20.816Z,23.92
2019-06-15T11:29:49.476Z,23.81
2019-06-15T11:32:18.170Z,23.68
2019-06-15T11:34:46.924Z,23.73
2019-06-15T11:37:15.573Z,23.71
2019-06-15T11:39:44.273Z,23.68
2019-06-15T11:42:12.837Z,23.96
2019-06-15T11:44:41.514Z,23.78
2019-06-15T11:47:10.191Z,24.50
2019-06-15T11:49:38.901Z,24.54
2019-06-15T11:52:07.837Z,24.88
2019-06-15T11:54:36.457Z,24.37
2019-06-15T11:57:05.204Z,24.05
2019-06-15T11:59:33.925Z,24.53
2019-06-15T12:05:10.858Z,24.68
2019-06-15T12:07:39.585Z,24.68
2019-06-15T12:10:48.052Z,24.38
2019-06-15T12:13:16.686Z,24.16
2019-06-15T12:15:45.361Z,24.37
2019-06-15T12:18:14.192Z,24.75
2019-06-15T12:20:42.859Z,24.85
2019-06-15T12:23:11.510Z,24.55
2019-06-15T12:25:40.210Z,24.28
2019-06-15T12:28:09.405Z,24.04
2019-06-15T12:31:18.111Z,24.51
2019-06-15T12:33:46.807Z,24.78
2019-06-15T12:36:19.247Z,24.77
2019-06-15T12:38:45.793Z,24.75
2019-06-15T12:41:14.472Z,24.06
2019-06-15T12:43:43.128Z,24.32
2019-06-15T12:46:11.942Z,23.86
2019-06-15T12:49:20.384Z,24.14
2019-06-15T12:51:49.031Z,24.67
2019-06-15T12:54:17.709Z,24.47
2019-06-15T12:56:46.359Z,24.98
2019-06-15T12:59:15.045Z,25.05
2019-06-15T13:01:43.733Z,25.15
2019-06-15T13:04:12.359Z,24.78
2019-06-15T13:06:41.016Z,25.05
2019-06-15T13:09:09.637Z,24.65
2019-06-15T13:11:38.275Z,24.32
2019-06-15T13:14:06.974Z,24.09
2019-06-15T13:16:39.286Z,24.00
2019-06-15T13:19:06.260Z,23.97
2019-06-15T13:21:34.939Z,24.05
2019-06-15T13:24:03.594Z,24.12
2019-06-15T13:26:32.286Z,24.20
2019-06-15T13:29:00.860Z,24.31
2019-06-15T13:31:29.570Z,24.30
2019-06-15T13:33:58.215Z,23.96
2019-06-15T13:36:26.887Z,23.81
2019-06-15T13:38:55.591Z,24.33
2019-06-15T13:41:24.683Z,24.55
2019-06-15T13:43:54.662Z,24.14
2019-06-15T13:46:23.322Z,23.96
2019-06-15T13:48:52.014Z,24.27
2019-06-15T13:51:20.715Z,24.31
2019-06-15T13:53:49.364Z,24.67
2019-06-15T13:56:18.049Z,24.73
2019-06-15T14:01:41.868Z,24.63
2019-06-15T14:04:10.561Z,24.05
2019-06-15T14:06:39.193Z,24.18
2019-06-15T14:09:47.655Z,24.67
2019-06-15T14:12:35.610Z,24.61
2019-06-15T14:15:44.050Z,24.36
2019-06-15T14:18:12.741Z,24.32
2019-06-15T14:20:41.321Z,24.82
2019-06-15T14:23:10.009Z,25.19
2019-06-15T14:25:38.730Z,25.36
2019-06-15T14:28:07.270Z,25.53
2019-06-15T14:30:35.976Z,25.66
2019-06-15T14:33:04.621Z,25.95
2019-06-15T14:35:33.270Z,26.05
2019-06-15T14:38:01.975Z,25.79
2019-06-15T14:40:30.627Z,25.62
2019-06-15T14:42:59.329Z,25.47
2019-06-15T14:45:27.982Z,25.37
2019-06-15T14:47:56.671Z,25.18
2019-06-15T14:50:25.270Z,25.11
2019-06-15T14:53:15.557Z,25.16
2019-06-15T14:56:03.578Z,25.08
2019-06-15T14:58:32.270Z,24.76
2019-06-15T15:01:00.850Z,24.75
2019-06-15T15:03:29.541Z,24.05
2019-06-15T15:05:58.185Z,23.71
2019-06-15T15:08:26.887Z,23.62
2019-06-15T15:10:56.302Z,23.74
2019-06-15T15:13:26.494Z,23.59
2019-06-15T15:15:57.034Z,23.17
2019-06-15T15:18:27.117Z,23.20
2019-06-15T15:20:57.065Z,23.32
2019-06-15T15:23:25.718Z,23.20
2019-06-15T15:25:54.373Z,23.31
2019-06-15T15:28:23.026Z,23.42
2019-06-15T15:30:51.708Z,23.64
2019-06-15T15:33:20.404Z,23.50
2019-06-15T15:35:49.039Z,23.34
2019-06-15T15:38:17.732Z,23.41
2019-06-15T15:40:46.794Z,23.74
2019-06-15T15:43:16.756Z,23.98
2019-06-15T15:45:46.065Z,24.21
2019-06-15T15:48:18.513Z,24.57
2019-06-15T15:50:46.998Z,24.87
2019-06-15T15:53:16.631Z,24.96
2019-06-15T15:55:46.748Z,25.14
2019-06-15T15:58:16.634Z,25.10
2019-06-15T16:00:46.857Z,25.30
2019-06-15T16:03:16.461Z,25.40
2019-06-15T16:06:26.095Z,25.35
2019-06-15T16:08:56.960Z,25.35
2019-06-15T16:11:26.669Z,25.44
2019-06-15T16:13:56.523Z,25.32
2019-06-15T16:16:26.784Z,25.64
2019-06-15T16:18:56.845Z,25.37
2019-06-15T16:21:26.075Z,25.39
2019-06-15T16:23:58.405Z,24.97
2019-06-15T16:26:27.199Z,24.05
2019-06-15T16:28:56.585Z,23.60
2019-06-15T16:31:28.512Z,23.65
2019-06-15T16:33:55.626Z,23.71
2019-06-15T16:36:24.228Z,23.89
2019-06-15T16:38:52.870Z,23.64
2019-06-15T16:41:21.564Z,23.57
2019-06-15T16:43:50.207Z,23.64
2019-06-15T16:46:18.930Z,23.66
2019-06-15T16:48:47.565Z,24.02
2019-06-15T16:51:16.798Z,23.92
2019-06-15T16:53:47.351Z,23.63
2019-06-15T16:56:17.020Z,23.45
2019-06-15T16:58:46.812Z,23.70
2019-06-15T17:01:16.850Z,23.97
2019-06-15T17:03:47.140Z,23.36
2019-06-15T17:06:16.917Z,23.38
2019-06-15T17:08:46.485Z,23.31
2019-06-15T17:11:17.324Z,23.46
2019-06-15T17:13:47.502Z,23.60
2019-06-15T17:16:16.970Z,23.71
2019-06-15T17:18:47.112Z,23.79
2019-06-15T17:21:17.093Z,23.96
2019-06-15T17:23:46.796Z,23.93
2019-06-15T17:26:57.114Z,23.76
2019-06-15T17:29:27.027Z,23.80
2019-06-15T17:31:57.048Z,23.68
2019-06-15T17:34:26.226Z,23.66
2019-06-15T17:36:57.462Z,23.66
2019-06-15T17:39:29.681Z,23.49
2019-06-15T17:41:57.337Z,23.43
2019-06-15T17:44:26.141Z,23.48
2019-06-15T17:46:56.581Z,23.45
2019-06-15T17:49:27.079Z,23.35
2019-06-15T17:51:55.547Z,23.29
2019-06-15T17:54:24.212Z,23.30
2019-06-15T17:56:52.820Z,23.22
2019-06-15T17:59:22.404Z,23.11
2019-06-15T18:01:51.878Z,23.02
2019-06-15T18:04:20.580Z,23.06
2019-06-15T18:06:49.136Z,23.12
2019-06-15T18:09:17.832Z,23.06
2019-06-15T18:11:46.694Z,22.99
2019-06-15T18:14:17.715Z,22.92
2019-06-15T18:16:47.277Z,22.88
2019-06-15T18:19:16.979Z,22.95
2019-06-15T18:21:46.695Z,22.74
2019-06-15T18:24:16.620Z,22.71
2019-06-15T18:26:47.437Z,22.80
2019-06-15T18:29:16.806Z,22.64
2019-06-15T18:31:46.050Z,22.50
2019-06-15T18:34:16.969Z,22.47
2019-06-15T18:36:45.147Z,22.16
2019-06-15T18:39:16.383Z,22.12
2019-06-15T18:41:46.266Z,22.09
2019-06-15T18:44:16.106Z,21.93
2019-06-15T18:46:46.583Z,21.77
2019-06-15T18:49:15.940Z,21.69
2019-06-15T18:52:06.200Z,21.54
2019-06-15T18:54:36.337Z,21.43
2019-06-15T18:57:07.402Z,21.39
2019-06-15T18:59:36.591Z,21.26
2019-06-15T19:02:06.825Z,21.15
2019-06-15T19:04:35.512Z,21.02
2019-06-15T19:07:06.482Z,20.97
2019-06-15T19:09:34.572Z,20.89
2019-06-15T19:12:06.895Z,20.76
2019-06-15T19:15:13.490Z,20.62
2019-06-15T19:17:42.135Z,20.76
2019-06-15T19:20:10.878Z,20.58
2019-06-15T19:22:39.572Z,20.43
2019-06-15T19:25:08.380Z,20.34
2019-06-15T19:27:37.028Z,20.37
2019-06-15T19:30:26.426Z,20.20
2019-06-15T19:32:56.614Z,20.15
2019-06-15T19:35:26.303Z,20.02
2019-06-15T19:37:56.675Z,19.92
2019-06-15T19:40:26.787Z,19.83
2019-06-15T19:42:57.128Z,19.76
2019-06-15T19:45:38.298Z,19.76
2019-06-15T19:48:07.077Z,19.71
2019-06-15T19:50:36.414Z,19.62
2019-06-15T19:53:07.163Z,19.59
2019-06-15T19:55:36.497Z,19.52
2019-06-15T19:58:07.162Z,19.44
2019-06-15T20:00:36.371Z,19.36
2019-06-15T20:03:07.146Z,19.29
2019-06-15T20:05:37.052Z,19.21
2019-06-15T20:08:07.174Z,19.11
2019-06-15T20:10:37.380Z,19.00
2019-06-15T20:13:07.533Z,19.03
2019-06-15T20:15:37.781Z,19.19
2019-06-15T20:18:06.968Z,19.05
2019-06-15T20:20:37.334Z,18.98
2019-06-15T20:23:07.557Z,18.89
2019-06-15T20:25:37.719Z,18.83
2019-06-15T20:28:07.208Z,18.71
2019-06-15T20:30:37.167Z,18.62
2019-06-15T20:33:07.810Z,18.68
2019-06-15T20:35:37.456Z,18.86
2019-06-15T20:38:06.091Z,18.75
2019-06-15T20:40:36.585Z,18.76
2019-06-15T20:43:07.379Z,18.62
2019-06-15T20:45:37.146Z,18.55
2019-06-15T20:48:06.888Z,18.54
2019-06-15T20:50:36.508Z,18.55
2019-06-15T20:53:06.043Z,18.50
2019-06-15T20:55:37.264Z,18.50
2019-06-15T20:58:06.643Z,18.46
2019-06-15T21:00:36.889Z,18.53
2019-06-15T21:03:47.162Z,18.55
2019-06-15T21:06:17.160Z,18.62
2019-06-15T21:08:46.997Z,18.65
2019-06-15T21:11:17.067Z,18.65
2019-06-15T21:13:46.937Z,18.70
2019-06-15T21:16:16.992Z,18.76
2019-06-15T21:18:46.676Z,18.73
2019-06-15T21:21:16.102Z,18.69
2019-06-15T21:23:46.339Z,18.61
2019-06-15T21:26:16.404Z,18.55
2019-06-15T21:28:45.457Z,18.47
2019-06-15T21:31:16.584Z,18.45
2019-06-15T21:33:46.623Z,18.37
2019-06-15T21:36:14.875Z,18.26
2019-06-15T21:38:43.400Z,18.23
2019-06-15T21:41:12.075Z,18.25
2019-06-15T21:43:40.778Z,18.20
2019-06-15T21:46:09.345Z,18.14
2019-06-15T21:48:38.058Z,18.13
2019-06-15T21:51:07.899Z,18.04
2019-06-15T21:53:37.089Z,17.95
2019-06-15T21:56:07.168Z,17.91
2019-06-15T21:58:36.754Z,17.93
2019-06-15T22:01:45.087Z,17.94
2019-06-15T22:04:16.196Z,17.86
2019-06-15T22:06:44.152Z,17.75
2019-06-15T22:09:12.890Z,17.69
2019-06-15T22:12:21.309Z,17.71
2019-06-15T22:14:49.987Z,17.70
2019-06-15T22:17:18.625Z,17.65
2019-06-15T22:19:47.307Z,17.67
2019-06-15T22:22:16.499Z,17.56
2019-06-15T22:24:46.933Z,17.62
2019-06-15T22:27:17.116Z,17.48
2019-06-15T22:29:47.400Z,17.44
2019-06-15T22:32:17.320Z,17.41
2019-06-15T22:34:47.047Z,17.31
2019-06-15T22:37:17.335Z,17.38
2019-06-15T22:39:46.818Z,17.33
2019-06-15T22:42:16.789Z,17.32
2019-06-15T22:44:46.476Z,17.17
2019-06-15T22:47:16.872Z,17.23
2019-06-15T22:49:46.891Z,17.11
2019-06-15T22:52:17.216Z,17.11
2019-06-15T22:54:47.352Z,17.00
2019-06-15T22:57:16.716Z,16.87
2019-06-15T22:59:46.382Z,16.68
2019-06-15T23:02:16.760Z,16.64
2019-06-15T23:04:47.150Z,16.59
2019-06-15T23:07:16.156Z,16.56
2019-06-15T23:09:46.835Z,16.51
2019-06-15T23:12:16.480Z,16.49
2019-06-15T23:14:46.592Z,16.46
2019-06-15T23:17:15.538Z,16.45
2019-06-15T23:19:46.133Z,16.43
2019-06-15T23:22:16.994Z,16.35
2019-06-15T23:24:46.842Z,16.34
2019-06-15T23:27:16.520Z,16.26
2019-06-15T23:29:46.400Z,16.16
2019-06-15T23:32:16.956Z,16.18
2019-06-15T23:34:46.915Z,16.18
2019-06-15T23:40:46.635Z,16.29
2019-06-15T23:43:16.726Z,16.58
2019-06-15T23:45:46.828Z,16.60
2019-06-15T23:48:16.176Z,16.58
2019-06-15T23:50:46.474Z,16.53
2019-06-15T23:53:17.005Z,16.35
2019-06-15T23:55:47.382Z,16.28
2019-06-15T23:58:17.801Z,16.18
